Time,TemperatureF,DewpointF,PressureIn,WindDirection,WindDirectionDegrees,WindSpeedMPH,WindSpeedGustMPH,Humidity,HourlyPrecipIn,Conditions,Clouds,dailyrainin,SoftwareType,DateUTC
2013-04-13 00:02:00,27.0,25.0,-100.00,NNW,330,10.0,14.0,93,0.00,,,0.00,,2013-04-13 05:02:00,
2013-04-13 00:12:00,27.0,25.0,-100.00,NNW,335,9.0,14.0,93,0.00,,,0.00,,2013-04-13 05:12:00,
2013-04-13 00:22:00,27.0,25.0,-100.00,NNW,335,9.0,13.0,93,0.00,,,0.00,,2013-04-13 05:22:00,
2013-04-13 00:32:00,27.0,25.0,-100.00,NNW,330,7.0,12.0,93,0.00,,,0.00,,2013-04-13 05:32:00,
2013-04-13 00:42:00,27.0,25.0,-100.00,NNW,330,7.0,12.0,93,0.00,,,0.00,,2013-04-13 05:42:00,
2013-04-13 00:52:00,27.0,25.0,-100.00,NNW,330,8.0,12.0,93,0.00,,,0.00,,2013-04-13 05:52:00,
2013-04-13 01:02:00,27.0,25.0,-100.00,NNW,335,7.0,10.0,93,0.00,,,0.00,,2013-04-13 06:02:00,
2013-04-13 01:12:00,27.0,25.0,-100.00,NW,325,7.0,10.0,93,0.00,,,0.00,,2013-04-13 06:12:00,
2013-04-13 01:23:00,27.0,27.0,-100.00,NW,325,6.0,10.0,93,0.00,,,0.00,,2013-04-13 06:23:00,
2013-04-13 01:34:00,27.0,25.0,-100.00,NNW,330,7.0,9.0,93,0.00,,,0.00,,2013-04-13 06:34:00,
2013-04-13 01:45:00,27.0,27.0,-100.00,NNW,330,7.0,10.0,93,0.00,,,0.00,,2013-04-13 06:45:00,
2013-04-13 01:53:00,27.0,27.0,-100.00,NNW,330,9.0,10.0,94,0.00,,,0.00,,2013-04-13 06:53:00,
2013-04-13 02:04:00,27.0,27.0,-100.00,NW,320,9.0,11.0,93,0.00,,,0.00,,2013-04-13 07:04:00,
2013-04-13 02:14:00,28.0,27.0,-100.00,NW,315,10.0,12.0,93,0.00,,,0.00,,2013-04-13 07:14:00,
2013-04-13 02:23:00,27.0,27.0,-100.00,NW,325,9.0,12.0,94,0.00,,,0.00,,2013-04-13 07:23:00,
2013-04-13 02:34:00,27.0,27.0,-100.00,NW,320,9.0,12.0,93,0.00,,,0.00,,2013-04-13 07:34:00,
2013-04-13 02:44:00,27.0,27.0,-100.00,NW,320,10.0,13.0,93,0.00,,,0.00,,2013-04-13 07:44:00,
2013-04-13 02:54:00,27.0,25.0,-100.00,NW,320,9.0,12.0,94,0.00,,,0.00,,2013-04-13 07:54:00,
2013-04-13 03:14:00,27.0,25.0,-100.00,NW,315,9.0,12.0,93,0.00,,,0.00,,2013-04-13 08:14:00,
2013-04-13 03:24:00,27.0,25.0,-100.00,NW,315,11.0,14.0,93,0.00,,,0.00,,2013-04-13 08:24:00,
2013-04-13 03:34:00,27.0,25.0,-100.00,NW,320,9.0,12.0,94,0.00,,,0.00,,2013-04-13 08:34:00,
2013-04-13 03:44:00,27.0,25.0,-100.00,NW,320,11.0,14.0,93,0.00,,,0.00,,2013-04-13 08:44:00,
2013-04-13 03:53:00,27.0,25.0,-100.00,NW,315,10.0,14.0,93,0.00,,,0.00,,2013-04-13 08:53:00,
2013-04-13 04:04:00,27.0,25.0,-100.00,NW,315,12.0,15.0,93,0.00,,,0.00,,2013-04-13 09:04:00,
2013-04-13 04:14:00,27.0,25.0,-100.00,NW,315,9.0,14.0,93,0.00,,,0.00,,2013-04-13 09:14:00,
2013-04-13 04:24:00,27.0,25.0,-100.00,NW,315,11.0,15.0,93,0.00,,,0.00,,2013-04-13 09:24:00,
2013-04-13 04:35:00,27.0,25.0,-100.00,NW,315,9.0,13.0,93,0.00,,,0.00,,2013-04-13 09:35:00,
2013-04-13 04:47:00,27.0,25.0,-100.00,NW,320,10.0,12.0,93,0.00,,,0.00,,2013-04-13 09:47:00,
2013-04-13 04:53:00,27.0,25.0,-100.00,NW,310,8.0,12.0,93,0.00,,,0.00,,2013-04-13 09:53:00,
2013-04-13 05:24:00,27.0,25.0,-100.00,NW,325,6.0,12.0,91,0.00,,,0.00,,2013-04-13 10:24:00,
2013-04-13 05:35:00,27.0,23.0,-100.00,NNW,330,11.0,17.0,88,0.00,,,0.00,,2013-04-13 10:35:00,
2013-04-13 05:45:00,27.0,23.0,-100.00,NNW,340,10.0,17.0,86,0.00,,,0.00,,2013-04-13 10:45:00,
2013-04-13 05:53:00,27.0,23.0,-100.00,NW,320,7.0,13.0,86,0.00,,,0.00,,2013-04-13 10:53:00,
2013-04-13 06:05:00,27.0,23.0,-100.00,NNW,330,9.0,11.0,86,0.00,,,0.00,,2013-04-13 11:05:00,
2013-04-13 06:13:00,27.0,23.0,-100.00,NW,320,7.0,11.0,86,0.00,,,0.00,,2013-04-13 11:13:00,
2013-04-13 06:23:00,27.0,23.0,-100.00,NW,325,9.0,12.0,87,0.00,,,0.00,,2013-04-13 11:23:00,
2013-04-13 06:33:00,27.0,25.0,-100.00,NW,310,8.0,11.0,88,0.00,,,0.00,,2013-04-13 11:33:00,
2013-04-13 06:44:00,27.0,23.0,-100.00,NW,315,11.0,14.0,89,0.00,,,0.00,,2013-04-13 11:44:00,
2013-04-13 06:53:00,27.0,23.0,-100.00,NW,320,9.0,13.0,89,0.00,,,0.00,,2013-04-13 11:53:00,
2013-04-13 07:07:00,27.0,23.0,-100.00,NW,310,9.0,13.0,89,0.00,,,0.00,,2013-04-13 12:07:00,
2013-04-13 07:14:00,27.0,23.0,-100.00,NW,315,11.0,13.0,89,0.00,,,0.00,,2013-04-13 12:14:00,
2013-04-13 07:24:00,27.0,23.0,-100.00,NW,315,9.0,12.0,88,0.00,,,0.00,,2013-04-13 12:24:00,
2013-04-13 07:35:00,27.0,23.0,-100.00,NW,310,9.0,12.0,88,0.00,,,0.00,,2013-04-13 12:35:00,
2013-04-13 07:45:00,27.0,23.0,-100.00,NW,315,12.0,16.0,89,0.00,,,0.00,,2013-04-13 12:45:00,
2013-04-13 07:53:00,27.0,25.0,-100.00,NW,315,8.0,14.0,90,0.00,,,0.00,,2013-04-13 12:53:00,
2013-04-13 08:05:00,27.0,25.0,-100.00,NW,320,9.0,13.0,90,0.00,,,0.00,,2013-04-13 13:05:00,
2013-04-13 08:14:00,27.0,25.0,-100.00,NW,325,10.0,12.0,90,0.00,,,0.00,,2013-04-13 13:14:00,
2013-04-13 08:33:00,27.0,25.0,-100.00,NW,315,9.0,12.0,90,0.00,,,0.00,,2013-04-13 13:33:00,
2013-04-13 08:45:00,27.0,25.0,-100.00,NW,310,9.0,12.0,90,0.00,,,0.00,,2013-04-13 13:45:00,
2013-04-13 08:53:00,27.0,25.0,-100.00,NW,325,9.0,12.0,91,0.00,,,0.00,,2013-04-13 13:53:00,
2013-04-13 09:04:00,27.0,25.0,-100.00,NNW,330,11.0,13.0,91,0.00,,,0.00,,2013-04-13 14:04:00,
2013-04-13 09:13:00,27.0,25.0,-100.00,NNW,330,9.0,14.0,91,0.00,,,0.00,,2013-04-13 14:13:00,
2013-04-13 09:23:00,27.0,25.0,-100.00,NW,325,10.0,12.0,90,0.00,,,0.00,,2013-04-13 14:23:00,
2013-04-13 09:35:00,27.0,25.0,-100.00,NNW,330,9.0,12.0,89,0.00,,,0.00,,2013-04-13 14:35:00,
2013-04-13 09:45:00,28.0,25.0,-100.00,NNW,330,7.0,11.0,88,0.00,,,0.00,,2013-04-13 14:45:00,
2013-04-13 09:54:00,28.0,25.0,-100.00,NW,320,9.0,14.0,86,0.00,,,0.00,,2013-04-13 14:54:00,
2013-04-13 10:04:00,28.0,25.0,-100.00,NNW,330,9.0,12.0,84,0.00,,,0.00,,2013-04-13 15:04:00,
2013-04-13 10:14:00,28.0,23.0,-100.00,NNW,335,9.0,12.0,82,0.00,,,0.00,,2013-04-13 15:14:00,
2013-04-13 10:27:00,29.0,23.0,-100.00,NW,320,7.0,12.0,81,0.00,,,0.00,,2013-04-13 15:27:00,
2013-04-13 10:35:00,29.0,25.0,-100.00,NNW,330,8.0,12.0,81,0.00,,,0.00,,2013-04-13 15:35:00,
2013-04-13 10:43:00,29.0,25.0,-100.00,NW,320,9.0,12.0,80,0.00,,,0.00,,2013-04-13 15:43:00,
2013-04-13 10:54:00,30.0,25.0,-100.00,WNW,300,9.0,11.0,79,0.00,,,0.00,,2013-04-13 15:54:00,
2013-04-13 11:05:00,30.0,23.0,-100.00,WNW,295,9.0,13.0,77,0.00,,,0.00,,2013-04-13 16:05:00,
2013-04-13 11:14:00,29.0,23.0,-100.00,NNW,335,11.0,13.0,77,0.00,,,0.00,,2013-04-13 16:14:00,
2013-04-13 11:24:00,30.0,23.0,-100.00,NW,325,7.0,11.0,73,0.00,,,0.00,,2013-04-13 16:24:00,
2013-04-13 11:35:00,30.0,23.0,-100.00,NW,320,9.0,12.0,73,0.00,,,0.00,,2013-04-13 16:35:00,
2013-04-13 11:45:00,31.0,23.0,-100.00,NW,305,7.0,10.0,72,0.00,,,0.00,,2013-04-13 16:45:00,
2013-04-13 12:05:00,31.0,23.0,-100.00,NW,305,9.0,11.0,68,0.00,,,0.00,,2013-04-13 17:05:00,
2013-04-13 12:20:00,31.0,21.0,-100.00,WNW,295,8.0,11.0,67,0.00,,,0.00,,2013-04-13 17:20:00,
2013-04-13 12:37:00,32.0,21.0,-100.00,NW,310,7.0,11.0,65,0.00,,,0.00,,2013-04-13 17:37:00,
2013-04-13 12:43:00,32.0,21.0,-100.00,NW,320,7.0,11.0,65,0.00,,,0.00,,2013-04-13 17:43:00,
2013-04-13 12:57:00,33.0,21.0,-100.00,NW,325,6.0,10.0,63,0.00,,,0.00,,2013-04-13 17:57:00,
2013-04-13 13:05:00,33.0,23.0,-100.00,NW,320,7.0,10.0,65,0.00,,,0.00,,2013-04-13 18:05:00,
2013-04-13 13:14:00,32.0,23.0,-100.00,NW,320,7.0,10.0,65,0.00,,,0.00,,2013-04-13 18:14:00,
2013-04-13 13:24:00,33.0,23.0,-100.00,NW,325,7.0,9.0,65,0.00,,,0.00,,2013-04-13 18:24:00,
2013-04-13 13:32:00,33.0,21.0,-100.00,NNW,330,6.0,9.0,64,0.00,,,0.00,,2013-04-13 18:32:00,
2013-04-13 13:42:00,33.0,23.0,-100.00,NNW,330,4.0,9.0,64,0.00,,,0.00,,2013-04-13 18:42:00,
2013-04-13 13:52:00,34.0,23.0,-100.00,WNW,300,6.0,9.0,62,0.00,,,0.00,,2013-04-13 18:52:00,
2013-04-13 14:02:00,34.0,23.0,-100.00,WNW,300,5.0,9.0,63,0.00,,,0.00,,2013-04-13 19:02:00,
2013-04-13 14:12:00,35.0,23.0,-100.00,NW,310,6.0,9.0,60,0.00,,,0.00,,2013-04-13 19:12:00,
2013-04-13 14:22:00,34.0,23.0,-100.00,NW,310,6.0,9.0,61,0.00,,,0.00,,2013-04-13 19:22:00,
2013-04-13 14:32:00,34.0,21.0,-100.00,North,5,4.0,8.0,60,0.00,,,0.00,,2013-04-13 19:32:00,
2013-04-13 14:42:00,35.0,21.0,-100.00,NNW,340,4.0,6.0,58,0.00,,,0.00,,2013-04-13 19:42:00,
2013-04-13 14:52:00,35.0,21.0,-100.00,NW,325,4.0,7.0,58,0.00,,,0.00,,2013-04-13 19:52:00,
2013-04-13 15:02:00,35.0,21.0,-100.00,ENE,60,3.0,7.0,58,0.00,,,0.00,,2013-04-13 20:02:00,
2013-04-13 15:12:00,34.0,21.0,-100.00,North,10,4.0,6.0,59,0.00,,,0.00,,2013-04-13 20:12:00,
2013-04-13 15:22:00,34.0,21.0,-100.00,East,80,4.0,6.0,59,0.00,,,0.00,,2013-04-13 20:22:00,
2013-04-13 15:32:00,33.0,21.0,-100.00,ESE,120,5.0,7.0,62,0.00,,,0.00,,2013-04-13 20:32:00,
2013-04-13 15:42:00,33.0,21.0,-100.00,East,100,5.0,7.0,63,0.00,,,0.00,,2013-04-13 20:42:00,
2013-04-13 15:52:00,33.0,21.0,-100.00,East,90,4.0,7.0,64,0.00,,,0.00,,2013-04-13 20:52:00,
2013-04-13 16:02:00,33.0,23.0,-100.00,East,90,5.0,7.0,63,0.00,,,0.00,,2013-04-13 21:02:00,
2013-04-13 16:12:00,33.0,21.0,-100.00,ESE,110,4.0,7.0,62,0.00,,,0.00,,2013-04-13 21:12:00,
2013-04-13 16:22:00,33.0,23.0,-100.00,NE,55,4.0,7.0,63,0.00,,,0.00,,2013-04-13 21:22:00,
2013-04-13 16:32:00,34.0,21.0,-100.00,ENE,65,4.0,6.0,61,0.00,,,0.00,,2013-04-13 21:32:00,
2013-04-13 16:43:00,34.0,21.0,-100.00,ENE,70,2.0,6.0,60,0.00,,,0.00,,2013-04-13 21:43:00,
2013-04-13 16:52:00,35.0,21.0,-100.00,ENE,60,4.0,6.0,59,0.00,,,0.00,,2013-04-13 21:52:00,
2013-04-13 17:03:00,33.0,21.0,-100.00,ESE,115,4.0,7.0,62,0.00,,,0.00,,2013-04-13 22:03:00,
2013-04-13 17:12:00,33.0,21.0,-100.00,East,95,4.0,7.0,62,0.00,,,0.00,,2013-04-13 22:12:00,
2013-04-13 17:22:00,33.0,21.0,-100.00,NE,55,3.0,6.0,62,0.00,,,0.00,,2013-04-13 22:22:00,
2013-04-13 17:33:00,33.0,21.0,-100.00,ENE,65,4.0,7.0,62,0.00,,,0.00,,2013-04-13 22:33:00,
2013-04-13 17:42:00,33.0,21.0,-100.00,East,95,5.0,7.0,62,0.00,,,0.00,,2013-04-13 22:42:00,
2013-04-13 17:52:00,33.0,21.0,-100.00,ESE,110,4.0,7.0,62,0.00,,,0.00,,2013-04-13 22:52:00,
2013-04-13 18:02:00,33.0,21.0,-100.00,East,100,5.0,7.0,62,0.00,,,0.00,,2013-04-13 23:02:00,
2013-04-13 18:12:00,33.0,21.0,-100.00,ESE,115,4.0,8.0,62,0.00,,,0.00,,2013-04-13 23:12:00,
2013-04-13 18:22:00,33.0,21.0,-100.00,East,100,6.0,7.0,63,0.00,,,0.00,,2013-04-13 23:22:00,
2013-04-13 18:32:00,33.0,21.0,-100.00,East,100,6.0,8.0,62,0.00,,,0.00,,2013-04-13 23:32:00,
2013-04-13 18:41:00,33.0,21.0,-100.00,ENE,75,4.0,9.0,62,0.00,,,0.00,,2013-04-13 23:41:00,
2013-04-13 18:52:00,32.0,19.0,-100.00,ENE,65,6.0,11.0,61,0.00,,,0.00,,2013-04-13 23:52:00,
2013-04-13 19:02:00,32.0,19.0,-100.00,ENE,75,7.0,9.0,60,0.00,,,0.00,,2013-04-14 00:02:00,
2013-04-13 19:12:00,31.0,19.0,-100.00,East,95,6.0,9.0,60,0.00,,,0.00,,2013-04-14 00:12:00,
2013-04-13 19:22:00,31.0,19.0,-100.00,ESE,110,5.0,7.0,60,0.00,,,0.00,,2013-04-14 00:22:00,
2013-04-13 19:32:00,31.0,19.0,-100.00,ESE,115,6.0,7.0,60,0.00,,,0.00,,2013-04-14 00:32:00,
2013-04-13 19:42:00,31.0,19.0,-100.00,ESE,115,6.0,8.0,60,0.00,,,0.00,,2013-04-14 00:42:00,
2013-04-13 19:52:00,31.0,19.0,-100.00,SSE,150,4.0,7.0,59,0.00,,,0.00,,2013-04-14 00:52:00,
2013-04-13 20:02:00,30.0,18.0,-100.00,South,175,4.0,5.0,60,0.00,,,0.00,,2013-04-14 01:02:00,
2013-04-13 20:12:00,30.0,18.0,-100.00,SSE,165,4.0,5.0,61,0.00,,,0.00,,2013-04-14 01:12:00,
2013-04-13 20:22:00,29.0,18.0,-100.00,South,170,4.0,4.0,62,0.00,,,0.00,,2013-04-14 01:22:00,
2013-04-13 20:32:00,29.0,18.0,-100.00,SSE,155,4.0,4.0,62,0.00,,,0.00,,2013-04-14 01:32:00,
2013-04-13 20:42:00,29.0,18.0,-100.00,South,175,3.0,4.0,62,0.00,,,0.00,,2013-04-14 01:42:00,
2013-04-13 20:52:00,29.0,18.0,-100.00,South,185,4.0,4.0,63,0.00,,,0.00,,2013-04-14 01:52:00,
2013-04-13 21:02:00,28.0,18.0,-100.00,South,175,4.0,5.0,64,0.00,,,0.00,,2013-04-14 02:02:00,
2013-04-13 21:12:00,28.0,18.0,-100.00,South,175,4.0,5.0,65,0.00,,,0.00,,2013-04-14 02:12:00,
2013-04-13 21:22:00,28.0,18.0,-100.00,South,170,4.0,4.0,67,0.00,,,0.00,,2013-04-14 02:22:00,
2013-04-13 21:32:00,28.0,19.0,-100.00,SSE,160,4.0,4.0,67,0.00,,,0.00,,2013-04-14 02:32:00,
2013-04-13 21:42:00,28.0,19.0,-100.00,SSE,150,3.0,4.0,68,0.00,,,0.00,,2013-04-14 02:42:00,
2013-04-13 21:52:00,28.0,19.0,-100.00,SE,125,4.0,4.0,68,0.00,,,0.00,,2013-04-14 02:52:00,
2013-04-13 22:02:00,27.0,18.0,-100.00,East,90,4.0,6.0,69,0.00,,,0.00,,2013-04-14 03:02:00,
2013-04-13 22:12:00,26.0,18.0,-100.00,East,85,4.0,6.0,70,0.00,,,0.00,,2013-04-14 03:12:00,
2013-04-13 22:22:00,27.0,19.0,-100.00,ESE,105,5.0,6.0,71,0.00,,,0.00,,2013-04-14 03:22:00,
2013-04-13 22:33:00,27.0,19.0,-100.00,SE,130,5.0,6.0,72,0.00,,,0.00,,2013-04-14 03:33:00,
2013-04-13 22:42:00,27.0,19.0,-100.00,SE,125,4.0,6.0,72,0.00,,,0.00,,2013-04-14 03:42:00,
2013-04-13 22:53:00,26.0,19.0,-100.00,ESE,115,4.0,6.0,73,0.00,,,0.00,,2013-04-14 03:53:00,
2013-04-13 23:02:00,26.0,19.0,-100.00,SE,125,4.0,6.0,74,0.00,,,0.00,,2013-04-14 04:02:00,
2013-04-13 23:12:00,26.0,19.0,-100.00,SE,130,4.0,6.0,75,0.00,,,0.00,,2013-04-14 04:12:00,
2013-04-13 23:23:00,26.0,19.0,-100.00,ESE,110,5.0,6.0,76,0.00,,,0.00,,2013-04-14 04:23:00,
2013-04-13 23:32:00,25.0,19.0,-100.00,East,95,5.0,7.0,76,0.00,,,0.00,,2013-04-14 04:32:00,
2013-04-13 23:42:00,25.0,19.0,-100.00,ESE,105,6.0,7.0,77,0.00,,,0.00,,2013-04-14 04:42:00,
2013-04-13 23:52:00,25.0,19.0,-100.00,East,100,6.0,6.0,78,0.00,,,0.00,,2013-04-14 04:52:00,